LTBA Airport Information

Runway Information
Runway 05 Length 8530 ft width 197 ft
Elevation 93 ft Threshold 492 ft Heading 59
Runway 23 Length 8530 ft Width 197 ft
Elevation 90 ft Threshold 0 ft Heading 239
Runway 17L Length 9843 ft width 148 ft
Elevation 157 ft Threshold 0 ft Heading 178
Runway 35R Length 9843 ft Width 148 ft
Elevation 100 ft Threshold 0 ft Heading 358
Runway 17R Length 9843 ft width 148 ft
Elevation 163 ft Threshold 0 ft Heading 178
Runway 35L Length 9843 ft Width 148 ft
Elevation 102 ft Threshold 0 ft Heading 358
Airport Frequencies
Type APP Name YESILKOY A Frequency 120.5 MHZ
Type ATIS Name ATIS Frequency 128.2 MHZ
Type CLD Name YESILKOY D Frequency 121.7 MHZ
Type GND Name YESILKOY G Frequency 121.8 MHZ
Type RMP Name YESILKOY R Frequency 121.9 MHZ
Type TWR Name YESILKOY T Frequency 118.1 MHZ
Airport Navaids
Type VORTAC Name Istanbul Frequency 112500 KHZ
Airport Weather Information & NOTAM
ADDS - METARS form results

(1955 UTC 16 July 2018)
 
METAR text: LTBA 161920Z 11005KT 080V140 CAVOK 26/20 Q1011 NOSIG RMK RWY17L 12004KT 080V170 RWY05 10003KT RWY23 12003KT 080V140
Conditions at: LTBA (ISTANBUL/ATATURK, TR) observed 1920 UTC 16 July 2018
Temperature: 26.0°C (79°F)
Dewpoint: 20.0°C (68°F) [RH = 70%]
Pressure (altimeter): 29.85 inches Hg (1011.0 mb)
Winds: from the ESE (110 degrees) at 6 MPH (5 knots; 2.6 m/s)
Visibility: 6 or more miles (10+ km)
Ceiling: ceiling and visibility are OK
Clouds: unknown
Weather: no significant weather observed at this time